Accueil
METAR-TAF:

METAR-TAF

Aéroports :

Bad Vöslau, Autriche

latitude: 47-57-52N, longitude: 016-15-34E, altitude: 233 m

Observation

Le bulletin a été fait il y a 15 heures et 20 minutes, à 16:00 UTC
Vent 2 kt de direction variable
Température 9°C
Humidité 49%
Pression

METAR: LOAV 201600Z VRB02KT 40KM BKN050CU 09/M01

Heure: 08:20 (07:20 UTC)

Prévision

Le bulletin a été fait il y a 19 heures et 55 minutes, à 11:25 UTC
Prévision valable du 20 à 12 UTC au 20 à 21 UTC
Vent 12 kt de ouest/nord-ouest
Visibilité 10 km ou plus
Quelques nuages à une hauteur de 4000 ft
Temporairement
du 20 à 12 UTC au 20 à 15 UTC
Vent 15 kt de nord-ouest
Nuages fragmentés à une hauteur de 4000 ft

TAF: LOAV 201125Z 2012/2021 30012KT 9999 FEW040 TEMPO 2012/2015 31015KT BKN040

Observations et prévisions météorologiques de plus de 4000 aéroports (messages METAR et TAF).

Les stations disponibles sont représentées par des disques jaunes et rouges sur la carte.

Passer la souris dessus pour voir le nom de la station.

Cliquer dessus pour voir les observations et prévisions météorologiques.

Pour changer de carte: cliquez sur les boutons verts avec une croix noire pour zoomer, sur le bouton vert avec un tiret pour effectuer un zoom arrière, ou sur les flèches vertes pour les cartes adjacentes.


METAR-TAF: